Arlington, CA

6:21 PM PDT on September 22, 2014 (GMT -0700)
Arlington Heights | Change Station
CLOSE
Current Station
Personal Weather Station
Location: Riverside, CA
Elevation: 788 ft
Nearby Weather Stations

Elev 788 ft 33.89 °N, 117.47 °W | Updated 18 minutes ago

Clear
Clear
84.1 °F
Feels Like 87 °F
N
3.0
Wind Variable Wind from West
Gusts 10.0 mph

Today
High -- | Low -- °F
--% Chance of Precip.
Yesterday
High -- | Low -- °F
Precip. -- in
6:37 AM 6:46 PM
Waning Crescent, 1% visible
Pressure 29.86 in
Visibility 10.0 miles
Clouds Clear
Heat Index 87 °F
Dew Point 67 °F
Humidity 57%
Rainfall -999.00 in
Snow Depth 2 in , 0 in , 0 in
UV 1 out of 12
Pollen 6.60 out of 12
Ozone Moderate
PM2.5 Moderate
Flu Activity Not available.
METAR KRAL 230053Z 27008KT 10SM CLR 29/15 A2990 RMK AO2 SLP110 T02940150

More Conditions Fewer Conditions

Pressure 29.86 in
Visibility 10.0 miles
Clouds Clear
Heat Index 87 °F
Dew Point 67 °F
Humidity 57%
Rainfall -999.00 in
Snow Depth 2 in , 0 in , 0 in
UV 1 out of 12
Pollen 6.60 out of 12
Ozone Moderate
PM2.5 Moderate
Flu Activity Not available.
METAR KRAL 230053Z 27008KT 10SM CLR 29/15 A2990 RMK AO2 SLP110 T02940150

More Conditions Fewer Conditions

10-Day Weather Forecast

Almanac

Astronomy

Sep. 22, 2014 Rise Set
Actual Time 6:37 AM PDT 6:46 PM PDT
Civil Twilight 6:13 AM PDT 7:11 PM PDT
Nautical Twilight 5:43 AM PDT 7:40 PM PDT
Astronomical Twilight 5:14 AM PDT 8:09 PM PDT
Moon 5:13 AM PDT (9/22) 5:55 PM PDT (9/22)
Length of Visible Light 12h 58m
Length of Day
12h 08m
Tomorrow will be 2m 5s shorter.
Waning Crescent, 1% of the Moon is Illuminated
Today
Waning Crescent
Sep 24
New
Oct 1
First Quarter
Oct 8
Full
Oct 15
Last Quarter

Today's Extremes

State Highs State Lows

Community

WunderPhotos

Upload Photos

1,755,578 photos uploaded!

Nearby

Air Quality

  Air Quality AQ Index Pollutant
Yesterday Good
PM10
Yesterday Good
OZONE
Current Moderate
PM2.5
Current Moderate
OZONE
Tuesday Good
PM10
Tuesday Moderate
OZONE
Tuesday Good
CO
Tuesday Good
NO2

Snow Depth

Station Depth Elevation
CSS Lab 2 in 6900 ft
Summit Meadow 0 in 9122 ft
Tahoe City Cross 0 in 6750 ft
Adin Mountain 0 in 6200 ft

Earthquake Activity

City Distance Mag. Time & Date
Big Bear Lake, California 35 miles 2.5 7:26 AM PDT
2014-09-22
Borrego Springs, California 78 miles 2.6 7:34 AM PDT
2014-09-21
Minimum magnitude displayed is 2.5.

Coastal Water Temperatures

Place Temperature
No Stations Reporting

Nearby Weather Stations